Erwin, South Dakota
Current Conditions -  °F | °C
As of 3:53 PM on Wednesday 26 Nov 2014 (Local Time) from KATY Reporting Station
Overcast Overcast  
Wind Chill: -7°   Ceiling: 7000
Heat Index:   Visibility: 10mi
Dew Point:   Wind: 14mph
Humidity: 67%   Direction: 350°N
Pressure: 30.33"   Gusts: NA
Location:  44.49°N, 97.45°W
Report Text: KATY 262153Z AUTO 35012KT 10SM BKN070 OVC085 M13/M18 A3033 RMK AO2 SLP306 T11281178
Loading
Personal Weather Stations






























Interactive Weather Map New forecast layout! Learn more

10-Day Weather Forecast

Advertisements
Track Severe Weather on mobile